Time;durP1;ratioP1;P1;durP2;ratioP2;P2;SDS_P1;SDS_P2;PMS_P1;PMS_P2;Temp;Humidity;BMP_temperature;BMP_pressure;BME280_temperature;BME280_humidity;BME280_pressure;Samples;Min_cycle;Max_cycle;Signal;HPM_P1;HPM_P2
2022/10/11 00:01:42;;;;;;;;;24.80;24.80;;;;;;;;5303483;27;13463;-75
2022/10/11 00:04:23;;;;;;;;;25.40;25.20;;;;;;;;5291776;27;1578876;-75
2022/10/11 00:07:18;;;;;;;;;24.60;24.60;;;;;;;;5261281;27;13516;-74
2022/10/11 00:10:00;;;;;;;;;19.60;19.60;;;;;;;;5266889;27;14297;-75
2022/10/11 00:12:41;;;;;;;;;15.80;14.60;;;;;;;;5293612;27;1523508;-75
2022/10/11 00:15:23;;;;;;;;;18.60;17.60;;;;;;;;5302860;27;13457;-75
2022/10/11 00:18:22;;;;;;;;;19.20;19.20;;;;;;;;5295263;27;1470891;-74
2022/10/11 00:21:06;;;;;;;;;17.40;16.80;;;;;;;;5303859;27;13382;-74
2022/10/11 00:23:49;;;;;;;;;17.60;17.60;;;;;;;;5261021;27;13464;-74
2022/10/11 00:26:50;;;;;;;;;17.00;16.20;;;;;;;;5303929;27;13350;-73
2022/10/11 00:29:33;;;;;;;;;16.40;15.80;;;;;;;;5315149;27;13419;-73
2022/10/11 00:32:34;;;;;;;;;13.00;13.00;;;;;;;;5261246;27;14317;-74
2022/10/11 00:35:15;;;;;;;;;23.00;23.00;;;;;;;;5259112;27;2471157;-75
2022/10/11 00:37:57;;;;;;;;;27.50;27.00;;;;;;;;5236783;27;2060214;-75
2022/10/11 00:40:38;;;;;;;;;25.25;22.75;;;;;;;;5288698;27;1685154;-75
2022/10/11 00:43:21;;;;;;;;;46.00;37.75;;;;;;;;5273967;27;1555297;-76
2022/10/11 00:46:05;;;;;;;;;30.75;30.00;;;;;;;;5275456;27;2037971;-77
2022/10/11 00:48:49;;;;;;;;;31.80;31.40;;;;;;;;5241991;28;13554;-79
2022/10/11 00:51:45;;;;;;;;;36.25;34.00;;;;;;;;5276159;27;2066840;-77
2022/10/11 00:54:27;;;;;;;;;44.75;38.25;;;;;;;;5272898;27;2067252;-76
2022/10/11 00:57:12;;;;;;;;;28.50;28.25;;;;;;;;5278425;27;1955836;-78
2022/10/11 00:59:55;;;;;;;;;26.50;26.00;;;;;;;;5280389;27;1886492;-78
2022/10/11 01:02:39;;;;;;;;;79.50;69.25;;;;;;;;5282353;27;13471;-77
2022/10/11 01:05:19;;;;;;;;;48.00;40.75;;;;;;;;5275502;27;2032198;-77
2022/10/11 01:08:03;;;;;;;;;25.00;25.00;;;;;;;;5263292;27;13535;-77
2022/10/11 01:10:46;;;;;;;;;36.40;33.40;;;;;;;;5239814;28;13563;-77
2022/10/11 01:13:28;;;;;;;;;49.60;41.40;;;;;;;;5281971;27;13485;-77
2022/10/11 01:16:11;;;;;;;;;49.80;42.20;;;;;;;;5302666;27;13464;-77
2022/10/11 01:18:58;;;;;;;;;52.20;43.00;;;;;;;;5282439;27;13462;-77
2022/10/11 01:21:46;;;;;;;;;50.50;42.25;;;;;;;;5282387;27;1841361;-77
2022/10/11 01:24:32;;;;;;;;;48.20;41.40;;;;;;;;5303300;27;13442;-77
2022/10/11 01:27:29;;;;;;;;;51.00;42.25;;;;;;;;5281467;27;1881998;-75
2022/10/11 01:30:13;;;;;;;;;70.00;52.00;;;;;;;;5283033;27;1793497;-74
2022/10/11 01:33:20;;;;;;;;;71.00;53.80;;;;;;;;5260803;27;13553;-74
2022/10/11 01:36:04;;;;;;;;;60.20;48.40;;;;;;;;5239951;28;13499;-74
2022/10/11 01:38:51;;;;;;;;;61.20;49.40;;;;;;;;5303459;27;13428;-74
2022/10/11 01:41:37;;;;;;;;;50.50;42.25;;;;;;;;5283792;27;1793720;-73
2022/10/11 01:44:19;;;;;;;;;41.75;37.50;;;;;;;;5286804;27;1712238;-73
2022/10/11 01:47:02;;;;;;;;;50.60;42.40;;;;;;;;5261026;27;13521;-74
2022/10/11 01:49:45;;;;;;;;;41.00;36.80;;;;;;;;5314629;27;13498;-73
2022/10/11 01:52:31;;;;;;;;;52.60;43.40;;;;;;;;5303708;27;13585;-73
2022/10/11 01:55:41;;;;;;;;;61.80;48.80;;;;;;;;5302515;27;13493;-72
2022/10/11 01:58:43;;;;;;;;;54.20;43.40;;;;;;;;5261167;27;13528;-73
2022/10/11 02:01:24;;;;;;;;;56.25;47.00;;;;;;;;5285800;27;1740649;-74
2022/10/11 02:04:36;;;;;;;;;98.00;78.00;;;;;;;;5260909;27;13585;-73
2022/10/11 02:07:22;;;;;;;;;97.25;73.00;;;;;;;;5242729;27;1965266;-76
2022/10/11 02:10:22;;;;;;;;;78.20;57.20;;;;;;;;5302989;27;13467;-76
2022/10/11 02:13:19;;;;;;;;;79.50;61.00;;;;;;;;5285326;27;1754263;-76
2022/10/11 02:16:01;;;;;;;;;49.25;39.00;;;;;;;;5271098;27;1886346;-75
2022/10/11 02:18:50;;;;;;;;;60.00;48.40;;;;;;;;5281487;27;13527;-73
2022/10/11 02:21:33;;;;;;;;;57.50;44.75;;;;;;;;5261385;27;1879538;-75
2022/10/11 02:24:21;;;;;;;;;57.80;48.00;;;;;;;;5261117;28;13499;-75
2022/10/11 02:27:03;;;;;;;;;50.50;42.75;;;;;;;;5290742;27;1602658;-75
2022/10/11 02:29:47;;;;;;;;;54.80;43.00;;;;;;;;5274151;27;14260;-77
2022/10/11 02:32:30;;;;;;;;;47.80;40.60;;;;;;;;5315113;27;13483;-75
2022/10/11 02:35:14;;;;;;;;;48.20;40.80;;;;;;;;5276754;28;13485;-76
2022/10/11 02:38:23;;;;;;;;;49.60;41.60;;;;;;;;5323905;27;13510;-77
2022/10/11 02:41:11;;;;;;;;;48.00;41.60;;;;;;;;5260577;28;13517;-76
2022/10/11 02:43:58;;;;;;;;;63.60;49.20;;;;;;;;5260834;28;13475;-80
2022/10/11 02:46:40;;;;;;;;;87.67;71.67;;;;;;;;5279972;27;1950573;-79
2022/10/11 02:49:22;;;;;;;;;86.00;68.50;;;;;;;;5302426;27;14262;-77
2022/10/11 02:52:06;;;;;;;;;63.60;52.80;;;;;;;;5324357;27;14171;-76
2022/10/11 02:54:46;;;;;;;;;58.25;47.50;;;;;;;;5278703;27;1908556;-77
2022/10/11 02:57:28;;;;;;;;;47.75;39.00;;;;;;;;5285831;27;1704402;-78
2022/10/11 03:00:11;;;;;;;;;43.00;36.60;;;;;;;;5270952;27;13573;-78
2022/10/11 03:03:04;;;;;;;;;41.75;38.00;;;;;;;;5285947;27;1731142;-77
2022/10/11 03:05:45;;;;;;;;;41.75;35.00;;;;;;;;5289909;27;1731301;-77
2022/10/11 03:08:44;;;;;;;;;41.50;37.50;;;;;;;;5277514;27;1777964;-82
2022/10/11 03:11:26;;;;;;;;;55.25;45.25;;;;;;;;5277871;27;1956332;-80
2022/10/11 03:14:09;;;;;;;;;57.00;47.20;;;;;;;;5293948;27;13582;-79
2022/10/11 03:16:50;;;;;;;;;58.50;49.25;;;;;;;;5285735;27;1732751;-81
2022/10/11 03:19:53;;;;;;;;;53.40;44.60;;;;;;;;5303656;27;13418;-82
2022/10/11 03:22:34;;;;;;;;;42.00;37.50;;;;;;;;5283933;27;1790781;-83
2022/10/11 03:25:15;;;;;;;;;52.25;44.25;;;;;;;;5253207;27;2142319;-76
2022/10/11 03:27:58;;;;;;;;;43.40;39.00;;;;;;;;5212725;28;13565;-78
2022/10/11 03:30:41;;;;;;;;;49.80;42.00;;;;;;;;5239592;28;13539;-79
2022/10/11 03:33:24;;;;;;;;;54.00;45.60;;;;;;;;5281330;27;13578;-76
2022/10/11 03:36:07;;;;;;;;;51.00;44.00;;;;;;;;5267202;27;1658344;-77
2022/10/11 03:38:51;;;;;;;;;44.00;38.40;;;;;;;;5261219;28;13477;-80
2022/10/11 03:41:32;;;;;;;;;47.50;41.25;;;;;;;;5286713;27;1820745;-77
2022/10/11 03:44:32;;;;;;;;;54.60;45.60;;;;;;;;5293229;27;13531;-77
2022/10/11 03:47:31;;;;;;;;;49.00;42.75;;;;;;;;5288863;27;1656386;-79
2022/10/11 03:50:31;;;;;;;;;50.25;41.00;;;;;;;;5257706;27;1659633;-81
2022/10/11 03:53:14;;;;;;;;;51.60;44.40;;;;;;;;5272740;27;13519;-76
2022/10/11 03:55:55;;;;;;;;;47.25;40.75;;;;;;;;5280357;27;1889736;-78
2022/10/11 03:58:36;;;;;;;;;53.75;45.00;;;;;;;;5282947;27;1814163;-79
2022/10/11 04:01:17;;;;;;;;;59.00;47.75;;;;;;;;5288888;27;1636789;-78
2022/10/11 04:03:57;;;;;;;;;89.33;78.33;;;;;;;;5286290;27;1720782;-75
2022/10/11 04:06:40;;;;;;;;;77.00;62.20;;;;;;;;5260822;28;13499;-73
2022/10/11 04:09:50;;;;;;;;;78.25;63.75;;;;;;;;5284239;27;1777015;-78
2022/10/11 04:12:31;;;;;;;;;79.00;64.50;;;;;;;;5275790;27;1592324;-78
2022/10/11 04:15:40;;;;;;;;;96.00;80.75;;;;;;;;5338733;27;13713;-78
2022/10/11 04:18:39;;;;;;;;;81.33;67.33;;;;;;;;5289511;27;1861653;-79
2022/10/11 04:21:22;;;;;;;;;61.80;51.20;;;;;;;;5254564;27;13499;-84
2022/10/11 04:24:05;;;;;;;;;53.20;43.40;;;;;;;;5280230;27;13445;-82
2022/10/11 04:26:47;;;;;;;;;62.50;50.00;;;;;;;;5278105;27;1962668;-79
2022/10/11 04:29:29;;;;;;;;;55.60;46.80;;;;;;;;5345834;27;13377;-78
2022/10/11 04:32:13;;;;;;;;;62.60;50.80;;;;;;;;5249056;28;13532;-81
2022/10/11 04:34:56;;;;;;;;;67.00;53.20;;;;;;;;5258943;27;13593;-78
2022/10/11 04:37:39;;;;;;;;;85.75;75.75;;;;;;;;5227623;28;13573;-78
2022/10/11 04:40:20;;;;;;;;;77.00;62.00;;;;;;;;5276656;27;1941442;-76
2022/10/11 04:43:01;;;;;;;;;65.50;52.50;;;;;;;;5264702;27;1754084;-80
2022/10/11 04:45:44;;;;;;;;;73.20;57.80;;;;;;;;5312875;27;13548;-77
2022/10/11 04:48:26;;;;;;;;;77.00;64.00;;;;;;;;5263535;27;1733611;-77
2022/10/11 04:51:27;;;;;;;;;84.00;76.75;;;;;;;;5290149;27;14543;-78
2022/10/11 04:54:10;;;;;;;;;109.33;98.00;;;;;;;;5312907;27;13508;-79
2022/10/11 04:56:53;;;;;;;;;91.00;79.75;;;;;;;;5280630;27;13480;-79
2022/10/11 04:59:35;;;;;;;;;106.00;96.67;;;;;;;;5301836;27;13488;-80
2022/10/11 05:02:34;;;;;;;;;128.25;111.75;;;;;;;;5273446;27;1975558;-79
2022/10/11 05:05:17;;;;;;;;;118.67;107.33;;;;;;;;5264013;27;13567;-78
2022/10/11 05:08:01;;;;;;;;;107.67;100.33;;;;;;;;5265720;28;14300;-76
2022/10/11 05:11:03;;;;;;;;;87.00;79.00;;;;;;;;5298131;27;1546448;-78
2022/10/11 05:13:46;;;;;;;;;81.50;70.00;;;;;;;;5316532;27;13580;-83
2022/10/11 05:16:29;;;;;;;;;73.20;59.00;;;;;;;;5287209;27;13538;-82
2022/10/11 05:19:12;;;;;;;;;65.00;53.40;;;;;;;;5270333;27;14315;-75
2022/10/11 05:21:56;;;;;;;;;75.60;60.00;;;;;;;;5272752;27;14271;-79
2022/10/11 05:24:40;;;;;;;;;71.00;57.60;;;;;;;;5258822;27;14345;-80
2022/10/11 05:27:22;;;;;;;;;89.75;80.25;;;;;;;;5294563;27;13460;-81
2022/10/11 05:30:04;;;;;;;;;82.33;72.67;;;;;;;;5278527;27;1678873;-77
2022/10/11 05:32:45;;;;;;;;;75.25;63.25;;;;;;;;5246322;27;1740918;-79
2022/10/11 05:35:28;;;;;;;;;65.20;52.80;;;;;;;;5257637;27;13550;-75
2022/10/11 05:38:10;;;;;;;;;69.00;55.75;;;;;;;;5125973;27;4655390;-77
2022/10/11 05:40:53;;;;;;;;;65.20;53.20;;;;;;;;5301267;27;14228;-74
2022/10/11 05:43:34;;;;;;;;;61.00;50.00;;;;;;;;5271873;27;1874344;-74
2022/10/11 05:46:17;;;;;;;;;61.60;48.80;;;;;;;;5264586;27;13531;-74
2022/10/11 05:49:00;;;;;;;;;72.80;57.00;;;;;;;;5258962;27;13516;-74
2022/10/11 05:51:41;;;;;;;;;61.75;50.25;;;;;;;;5267833;27;2058079;-75
2022/10/11 05:54:42;;;;;;;;;57.60;47.20;;;;;;;;5301003;27;14247;-74
2022/10/11 05:57:24;;;;;;;;;55.75;46.00;;;;;;;;5246324;27;2053632;-74
2022/10/11 06:00:23;;;;;;;;;60.25;49.00;;;;;;;;5278756;27;1879879;-73
2022/10/11 06:03:05;;;;;;;;;76.00;63.75;;;;;;;;5281872;27;1798990;-77
2022/10/11 06:06:14;;;;;;;;;56.00;47.00;;;;;;;;5279163;27;13581;-73
2022/10/11 06:09:20;;;;;;;;;52.50;43.25;;;;;;;;5270343;27;1697174;-73
2022/10/11 06:12:21;;;;;;;;;52.40;44.00;;;;;;;;5245590;28;13518;-70
2022/10/11 06:15:33;;;;;;;;;59.20;49.60;;;;;;;;5196226;27;13437;-72
2022/10/11 06:18:14;;;;;;;;;65.40;53.20;;;;;;;;4694630;27;18608355;-71
2022/10/11 06:21:15;;;;;;;;;104.67;96.00;;;;;;;;5321231;27;13388;-74
2022/10/11 06:23:55;;;;;;;;;124.25;115.00;;;;;;;;4686015;27;18548475;-74
2022/10/11 06:26:55;;;;;;;;;71.40;59.40;;;;;;;;5320531;27;13554;-73
2022/10/11 06:29:50;;;;;;;;;64.00;52.40;;;;;;;;5279860;27;13505;-74
2022/10/11 06:32:31;;;;;;;;;60.50;50.00;;;;;;;;4683086;27;18725720;-73
2022/10/11 06:35:12;;;;;;;;;61.75;50.25;;;;;;;;4598785;27;20920289;-72
2022/10/11 06:37:54;;;;;;;;;65.00;52.75;;;;;;;;4773597;27;15101048;-73
2022/10/11 06:40:35;;;;;;;;;58.50;48.00;;;;;;;;4805196;27;15292054;-73
2022/10/11 06:43:17;;;;;;;;;61.25;50.00;;;;;;;;4205327;27;30093903;-75
2022/10/11 06:46:20;;;;;;;;;55.00;45.60;;;;;;;;5272045;27;13504;-74
2022/10/11 06:49:02;;;;;;;;;56.75;46.00;;;;;;;;4793149;27;15149448;-73
2022/10/11 06:52:41;;;;;;;;;54.80;46.00;;;;;;;;5315839;27;13512;-74
2022/10/11 06:55:23;;;;;;;;;56.25;47.25;;;;;;;;4694195;27;18761317;-75
2022/10/11 06:58:04;;;;;;;;;51.25;42.50;;;;;;;;4789323;27;15161087;-73
2022/10/11 07:00:46;;;;;;;;;65.75;53.50;;;;;;;;4809016;27;15161145;-73
2022/10/11 07:03:28;;;;;;;;;69.50;55.00;;;;;;;;4662072;27;17978459;-73
2022/10/11 07:06:10;;;;;;;;;64.00;52.00;;;;;;;;4811785;27;15176483;-83
2022/10/11 07:09:24;;;;;;;;;60.75;49.25;;;;;;;;4702640;27;17880430;-71
2022/10/11 07:12:06;;;;;;;;;56.00;44.00;;;;;;;;4575184;27;21073472;-74
2022/10/11 07:15:09;;;;;;;;;63.00;52.40;;;;;;;;5262703;27;13574;-73
2022/10/11 07:17:49;;;;;;;;;57.00;46.50;;;;;;;;4609602;27;21034041;-73
2022/10/11 07:20:37;;;;;;;;;51.00;42.00;;;;;;;;4814626;27;15177068;-71
2022/10/11 07:23:38;;;;;;;;;55.40;45.00;;;;;;;;4675735;27;18619011;-73
2022/10/11 07:26:19;;;;;;;;;62.25;50.00;;;;;;;;4608897;27;21142581;-72
2022/10/11 07:29:19;;;;;;;;;61.60;49.80;;;;;;;;5324444;27;13367;-72
2022/10/11 07:32:15;;;;;;;;;55.20;46.00;;;;;;;;5278468;27;14273;-72
2022/10/11 07:34:55;;;;;;;;;50.00;39.00;;;;;;;;4175354;27;33100783;-71
2022/10/11 07:37:35;;;;;;;;;57.20;46.80;;;;;;;;4669928;27;18525339;-70
2022/10/11 07:40:47;;;;;;;;;69.75;54.75;;;;;;;;4815061;27;15138283;-71
2022/10/11 07:43:28;;;;;;;;;68.50;53.25;;;;;;;;4654496;27;17981607;-71
2022/10/11 07:46:26;;;;;;;;;71.60;56.20;;;;;;;;5324373;27;13354;-72
2022/10/11 07:49:07;;;;;;;;;73.50;58.00;;;;;;;;4696574;27;18623979;-71
2022/10/11 07:52:18;;;;;;;;;63.20;51.40;;;;;;;;5182514;27;13673;-72
2022/10/11 07:55:18;;;;;;;;;58.60;47.00;;;;;;;;5271543;27;14331;-71
2022/10/11 07:58:14;;;;;;;;;58.80;47.00;;;;;;;;5282153;27;13470;-71
2022/10/11 08:00:55;;;;;;;;;53.25;43.75;;;;;;;;4506033;27;24030134;-71
2022/10/11 08:03:50;;;;;;;;;51.40;42.60;;;;;;;;5282481;27;13471;-71
2022/10/11 08:06:45;;;;;;;;;53.20;42.60;;;;;;;;5262572;27;13587;-71
2022/10/11 08:09:56;;;;;;;;;53.40;42.20;;;;;;;;5183388;27;14396;-71
2022/10/11 08:12:52;;;;;;;;;52.40;43.40;;;;;;;;5279231;27;13663;-72
2022/10/11 08:15:53;;;;;;;;;69.80;56.60;;;;;;;;5282470;27;13458;-72
2022/10/11 08:18:55;;;;;;;;;60.40;48.00;;;;;;;;5324363;27;13504;-72
2022/10/11 08:21:50;;;;;;;;;55.40;44.00;;;;;;;;5281277;27;13556;-72
2022/10/11 08:24:49;;;;;;;;;49.80;42.00;;;;;;;;5324594;27;13355;-72
2022/10/11 08:27:30;;;;;;;;;54.75;44.00;;;;;;;;4335379;27;27105948;-72
2022/10/11 08:30:26;;;;;;;;;46.40;39.20;;;;;;;;5282675;27;13685;-72
2022/10/11 08:33:25;;;;;;;;;48.60;40.20;;;;;;;;4703756;27;18549662;-72
2022/10/11 08:36:31;;;;;;;;;40.40;35.40;;;;;;;;5290659;27;13429;-72
2022/10/11 08:39:30;;;;;;;;;49.00;41.00;;;;;;;;5324571;27;13373;-72
2022/10/11 08:42:42;;;;;;;;;49.00;42.00;;;;;;;;5282453;27;13479;-72
2022/10/11 08:45:53;;;;;;;;;37.60;33.40;;;;;;;;5282569;27;13581;-72
2022/10/11 08:48:49;;;;;;;;;42.00;35.60;;;;;;;;5282363;27;13482;-72
2022/10/11 08:51:58;;;;;;;;;38.20;34.20;;;;;;;;5324399;27;13371;-72
2022/10/11 08:54:43;;;;;;;;;42.75;37.25;;;;;;;;4334129;27;27139742;-72
2022/10/11 08:57:51;;;;;;;;;41.00;35.80;;;;;;;;5198537;27;13576;-72
2022/10/11 09:00:49;;;;;;;;;31.80;30.80;;;;;;;;5282742;27;13680;-72
2022/10/11 09:03:38;;;;;;;;;27.20;27.00;;;;;;;;5261313;27;14420;-72
2022/10/11 09:06:22;;;;;;;;;28.60;26.80;;;;;;;;5295767;27;1464839;-72
2022/10/11 09:09:13;;;;;;;;;33.40;31.00;;;;;;;;5261027;27;13518;-72
2022/10/11 09:12:10;;;;;;;;;30.40;29.80;;;;;;;;5261378;27;13500;-71
2022/10/11 09:15:03;;;;;;;;;25.40;25.40;;;;;;;;5263610;28;8848;-71
2022/10/11 09:17:48;;;;;;;;;36.60;34.20;;;;;;;;5246658;28;8763;-71
2022/10/11 09:20:38;;;;;;;;;25.80;25.80;;;;;;;;5264482;28;9637;-72
2022/10/11 09:23:42;;;;;;;;;21.80;21.60;;;;;;;;5263135;28;8875;-72
2022/10/11 09:26:27;;;;;;;;;24.20;23.80;;;;;;;;5229590;28;8767;-72
2022/10/11 09:29:13;;;;;;;;;25.80;25.20;;;;;;;;5263005;28;8791;-71
2022/10/11 09:31:51;;;;;;;;;21.20;20.60;;;;;;;;5264292;28;8799;-72
2022/10/11 09:34:41;;;;;;;;;22.60;22.60;;;;;;;;5264172;28;8810;-72
2022/10/11 09:37:25;;;;;;;;;20.20;20.20;;;;;;;;5245899;28;8807;-72
2022/10/11 09:40:01;;;;;;;;;17.40;17.40;;;;;;;;5264299;28;8790;-72
2022/10/11 09:42:33;;;;;;;;;19.00;18.60;;;;;;;;5262694;28;8852;-72
2022/10/11 09:45:13;;;;;;;;;16.50;16.50;;;;;;;;5262445;28;8799;-72
2022/10/11 09:47:44;;;;;;;;;13.60;13.60;;;;;;;;5264128;28;8902;-72
2022/10/11 09:50:16;;;;;;;;;19.80;19.60;;;;;;;;5245685;28;8924;-72
2022/10/11 09:52:48;;;;;;;;;16.20;15.40;;;;;;;;5245569;28;8767;-72
2022/10/11 09:55:30;;;;;;;;;14.00;13.60;;;;;;;;5263291;28;8799;-72
2022/10/11 09:58:02;;;;;;;;;12.00;12.00;;;;;;;;5262970;28;8789;-72
2022/10/11 10:00:33;;;;;;;;;14.75;14.75;;;;;;;;5263570;28;9517;-72
2022/10/11 10:03:04;;;;;;;;;12.00;12.00;;;;;;;;5262419;28;8868;-73
2022/10/11 10:06:03;;;;;;;;;14.00;13.25;;;;;;;;5262282;28;8759;-72
2022/10/11 10:08:35;;;;;;;;;10.00;9.75;;;;;;;;5245661;28;8783;-72
2022/10/11 10:11:24;;;;;;;;;18.20;17.40;;;;;;;;5280016;28;8855;-72
2022/10/11 10:13:55;;;;;;;;;14.33;13.33;;;;;;;;5266289;28;8912;-73
2022/10/11 10:16:26;;;;;;;;;10.75;10.75;;;;;;;;5282837;28;11464;-72
2022/10/11 10:19:05;;;;;;;;;13.00;12.67;;;;;;;;5283044;28;8799;-72
2022/10/11 10:21:49;;;;;;;;;15.75;15.50;;;;;;;;5278324;28;11470;-73
2022/10/11 10:24:49;;;;;;;;;15.25;13.25;;;;;;;;5269919;28;8785;-73
2022/10/11 10:27:24;;;;;;;;;7.75;7.75;;;;;;;;5239102;28;8801;-73
2022/10/11 10:30:12;;;;;;;;;9.50;9.50;;;;;;;;5269043;28;8796;-72
2022/10/11 10:33:05;;;;;;;;;15.00;15.00;;;;;;;;5269906;28;8815;-72
2022/10/11 10:35:36;;;;;;;;;15.50;15.25;;;;;;;;5235606;28;8792;-72
2022/10/11 10:38:14;;;;;;;;;12.67;12.67;;;;;;;;5251807;28;8780;-72
2022/10/11 10:40:47;;;;;;;;;19.25;19.25;;;;;;;;5235183;28;10335;-72
2022/10/11 10:43:20;;;;;;;;;14.75;14.75;;;;;;;;5268373;28;8780;-72
2022/10/11 10:45:56;;;;;;;;;13.25;13.25;;;;;;;;5251564;28;9553;-72
2022/10/11 10:48:32;;;;;;;;;10.00;10.00;;;;;;;;5235572;28;8799;-72
2022/10/11 10:51:07;;;;;;;;;17.25;16.75;;;;;;;;5251588;28;9683;-72
2022/10/11 10:53:45;;;;;;;;;17.50;17.00;;;;;;;;5268221;28;8951;-72
2022/10/11 10:56:26;;;;;;;;;16.25;16.00;;;;;;;;5252018;28;8799;-72
2022/10/11 10:59:00;;;;;;;;;14.50;13.75;;;;;;;;5235082;28;9362;-73
2022/10/11 11:01:32;;;;;;;;;17.00;17.00;;;;;;;;5252205;28;8772;-72
2022/10/11 11:04:03;;;;;;;;;11.25;11.25;;;;;;;;5234983;28;8798;-72
2022/10/11 11:06:40;;;;;;;;;13.00;13.00;;;;;;;;5269418;28;8772;-71
2022/10/11 11:09:17;;;;;;;;;11.75;11.75;;;;;;;;5268167;28;8827;-73
2022/10/11 11:12:20;;;;;;;;;13.50;13.50;;;;;;;;5253730;28;8941;-71
2022/10/11 11:14:55;;;;;;;;;12.25;12.25;;;;;;;;5251298;28;8895;-72
2022/10/11 11:17:44;;;;;;;;;16.50;16.00;;;;;;;;5251128;28;8795;-72
2022/10/11 11:20:39;;;;;;;;;13.75;12.50;;;;;;;;5268948;28;8849;-72
2022/10/11 11:23:19;;;;;;;;;12.75;12.75;;;;;;;;5251381;28;8892;-72
2022/10/11 11:25:56;;;;;;;;;14.20;14.20;;;;;;;;5234444;28;8777;-72
2022/10/11 11:28:40;;;;;;;;;18.20;18.20;;;;;;;;5268901;28;8837;-72
2022/10/11 11:31:11;;;;;;;;;24.60;23.20;;;;;;;;5267443;28;9573;-72
2022/10/11 11:34:01;;;;;;;;;18.60;18.60;;;;;;;;5249852;28;8800;-71
2022/10/11 11:36:39;;;;;;;;;16.40;16.40;;;;;;;;5268545;28;8788;-73
2022/10/11 11:39:29;;;;;;;;;17.40;17.00;;;;;;;;5268060;28;8804;-71
2022/10/11 11:42:06;;;;;;;;;19.00;18.60;;;;;;;;5251551;28;8899;-72
2022/10/11 11:44:39;;;;;;;;;19.40;17.80;;;;;;;;5250957;28;8791;-72
2022/10/11 11:47:16;;;;;;;;;21.40;21.40;;;;;;;;5268301;28;8781;-72
2022/10/11 11:50:14;;;;;;;;;27.20;24.40;;;;;;;;5268540;28;9616;-72
2022/10/11 11:52:46;;;;;;;;;25.80;23.60;;;;;;;;5250475;28;9612;-72
2022/10/11 11:55:35;;;;;;;;;19.60;18.80;;;;;;;;5267175;28;8769;-72
2022/10/11 11:58:21;;;;;;;;;24.25;23.50;;;;;;;;5266778;28;8858;-72
2022/10/11 12:00:52;;;;;;;;;26.20;25.80;;;;;;;;5267398;28;8906;-72
2022/10/11 12:03:26;;;;;;;;;28.50;27.25;;;;;;;;5267021;28;8904;-72
2022/10/11 12:06:18;;;;;;;;;39.40;35.00;;;;;;;;5266745;28;8769;-72
2022/10/11 12:09:20;;;;;;;;;40.80;35.60;;;;;;;;5267045;28;8796;-71
2022/10/11 12:11:53;;;;;;;;;39.20;35.80;;;;;;;;5267877;28;8934;-71
2022/10/11 12:14:33;;;;;;;;;38.20;35.20;;;;;;;;5249754;28;8849;-71
2022/10/11 12:17:10;;;;;;;;;41.20;36.00;;;;;;;;5268170;28;8886;-71
2022/10/11 12:20:01;;;;;;;;;36.00;33.20;;;;;;;;5267218;28;8803;-71
2022/10/11 12:22:33;;;;;;;;;44.60;38.80;;;;;;;;5253357;28;8881;-71
2022/10/11 12:25:08;;;;;;;;;46.25;38.75;;;;;;;;5266587;28;8776;-72
2022/10/11 12:27:47;;;;;;;;;50.20;42.00;;;;;;;;5249315;28;10517;-73
2022/10/11 12:30:36;;;;;;;;;45.40;40.00;;;;;;;;5267466;28;8804;-72
2022/10/11 12:33:13;;;;;;;;;54.40;44.00;;;;;;;;5267616;28;8815;-73
2022/10/11 12:35:46;;;;;;;;;43.40;37.20;;;;;;;;5265767;28;9495;-73
2022/10/11 12:38:38;;;;;;;;;56.40;46.20;;;;;;;;5267747;28;8973;-72
2022/10/11 12:41:36;;;;;;;;;52.60;44.20;;;;;;;;5266169;28;8788;-71
2022/10/11 12:44:07;;;;;;;;;52.20;43.60;;;;;;;;5266107;28;8784;-73
2022/10/11 12:46:41;;;;;;;;;51.00;42.20;;;;;;;;5267037;28;8792;-73
2022/10/11 12:49:22;;;;;;;;;57.40;45.80;;;;;;;;5266170;28;8900;-72
2022/10/11 12:52:01;;;;;;;;;43.00;37.60;;;;;;;;5266102;28;8884;-72
2022/10/11 12:54:50;;;;;;;;;55.20;44.20;;;;;;;;5249130;28;8784;-72
2022/10/11 12:57:40;;;;;;;;;40.20;35.00;;;;;;;;5267471;28;8861;-73
2022/10/11 13:00:31;;;;;;;;;51.40;41.80;;;;;;;;5251628;28;8780;-73
2022/10/11 13:03:25;;;;;;;;;61.80;48.60;;;;;;;;5266327;28;8848;-71
2022/10/11 13:06:26;;;;;;;;;54.00;42.60;;;;;;;;5266092;28;8781;-72
2022/10/11 13:09:14;;;;;;;;;48.80;41.80;;;;;;;;5232545;28;8784;-72
2022/10/11 13:11:47;;;;;;;;;49.00;41.80;;;;;;;;5267427;28;9017;-72
2022/10/11 13:14:20;;;;;;;;;44.20;38.60;;;;;;;;5265790;28;8788;-73
2022/10/11 13:17:03;;;;;;;;;35.20;33.20;;;;;;;;5265899;28;8772;-72
2022/10/11 13:19:35;;;;;;;;;29.80;28.80;;;;;;;;5248950;28;8781;-72
2022/10/11 13:22:15;;;;;;;;;39.60;35.60;;;;;;;;5267286;28;8792;-72
2022/10/11 13:24:46;;;;;;;;;37.80;36.00;;;;;;;;5249088;28;8781;-71
2022/10/11 13:27:20;;;;;;;;;38.40;34.60;;;;;;;;5249133;28;8795;-72
2022/10/11 13:29:52;;;;;;;;;36.80;34.20;;;;;;;;5248928;28;8765;-72
2022/10/11 13:32:25;;;;;;;;;40.40;37.00;;;;;;;;5266039;28;8781;-72
2022/10/11 13:35:24;;;;;;;;;33.80;32.80;;;;;;;;5266146;28;8760;-71
2022/10/11 13:37:56;;;;;;;;;34.80;33.80;;;;;;;;5248846;28;9329;-72
2022/10/11 13:40:27;;;;;;;;;38.40;35.40;;;;;;;;5265503;28;9531;-72
2022/10/11 13:43:24;;;;;;;;;47.20;38.60;;;;;;;;5266832;28;8972;-71
2022/10/11 13:45:57;;;;;;;;;49.20;41.20;;;;;;;;5265810;28;8769;-72
2022/10/11 13:48:28;;;;;;;;;45.80;40.00;;;;;;;;5248493;28;8912;-72
2022/10/11 13:51:15;;;;;;;;;45.80;40.00;;;;;;;;5265334;28;8876;-71
2022/10/11 13:54:06;;;;;;;;;51.20;43.00;;;;;;;;5266756;28;8788;-71
2022/10/11 13:56:43;;;;;;;;;64.20;51.00;;;;;;;;5267171;28;8853;-73
2022/10/11 13:59:19;;;;;;;;;65.40;52.80;;;;;;;;5270497;28;8923;-72
2022/10/11 14:01:53;;;;;;;;;64.80;51.20;;;;;;;;5270837;28;8811;-72
2022/10/11 14:04:42;;;;;;;;;60.60;50.40;;;;;;;;5269446;28;8788;-72
2022/10/11 14:07:23;;;;;;;;;63.50;51.00;;;;;;;;5252321;28;8812;-72
2022/10/11 14:09:54;;;;;;;;;68.00;54.40;;;;;;;;5268834;28;11567;-72
2022/10/11 14:12:31;;;;;;;;;56.20;47.80;;;;;;;;5270467;28;8784;-72
2022/10/11 14:15:23;;;;;;;;;59.20;50.00;;;;;;;;5270538;28;8788;-72
2022/10/11 14:18:33;;;;;;;;;61.40;50.00;;;;;;;;5269442;28;8790;-72
2022/10/11 14:21:17;;;;;;;;;60.00;49.40;;;;;;;;5269236;28;8804;-72
2022/10/11 14:24:05;;;;;;;;;57.40;47.60;;;;;;;;5269144;28;8803;-73
2022/10/11 14:26:38;;;;;;;;;70.60;56.60;;;;;;;;5270233;28;8852;-72
2022/10/11 14:29:12;;;;;;;;;71.80;59.00;;;;;;;;5252139;28;8785;-73
2022/10/11 14:31:43;;;;;;;;;70.40;56.20;;;;;;;;5251928;28;9694;-73
2022/10/11 14:34:20;;;;;;;;;58.75;49.00;;;;;;;;5268692;28;8907;-72
2022/10/11 14:36:52;;;;;;;;;60.00;49.60;;;;;;;;5268323;28;11639;-72
2022/10/11 14:39:24;;;;;;;;;54.00;44.60;;;;;;;;5269503;28;8800;-72
2022/10/11 14:41:55;;;;;;;;;48.40;42.20;;;;;;;;5269827;28;8864;-71
2022/10/11 14:44:26;;;;;;;;;51.25;43.50;;;;;;;;5251767;28;8773;-71
2022/10/11 14:46:57;;;;;;;;;30.25;27.75;;;;;;;;5251412;28;10740;-71
2022/10/11 14:49:29;;;;;;;;;45.00;40.00;;;;;;;;5268646;28;8783;-71
2022/10/11 14:52:19;;;;;;;;;39.60;35.40;;;;;;;;5267955;28;8804;-73
2022/10/11 14:54:49;;;;;;;;;47.75;42.00;;;;;;;;5256534;28;8827;-71
2022/10/11 14:57:20;;;;;;;;;54.75;46.00;;;;;;;;5256311;28;8836;-71
2022/10/11 14:59:51;;;;;;;;;42.50;38.25;;;;;;;;5231571;28;8788;-69
2022/10/11 15:02:22;;;;;;;;;43.75;38.50;;;;;;;;5247299;28;9818;-72
2022/10/11 15:04:53;;;;;;;;;27.50;27.50;;;;;;;;5251292;28;11659;-72
2022/10/11 15:07:42;;;;;;;;;157.75;125.50;;;;;;;;5240617;28;8799;-72
2022/10/11 15:10:16;;;;;;;;;415.00;282.33;;;;;;;;5254841;28;8848;-71
2022/10/11 15:12:48;;;;;;;;;180.75;123.75;;;;;;;;5230830;28;8823;-71
2022/10/11 15:15:21;;;;;;;;;156.33;129.33;;;;;;;;5251499;28;11503;-73
2022/10/11 15:17:54;;;;;;;;;345.67;269.67;;;;;;;;5261980;28;9036;-70
2022/10/11 15:20:26;;;;;;;;;297.75;226.50;;;;;;;;5232764;28;8820;-72
2022/10/11 15:22:58;;;;;;;;;175.50;144.50;;;;;;;;5253801;28;8819;-71
2022/10/11 15:25:29;;;;;;;;;166.50;142.00;;;;;;;;5250473;28;11119;-71
2022/10/11 15:28:01;;;;;;;;;168.33;137.00;;;;;;;;5246564;28;10277;-72
2022/10/11 15:30:33;;;;;;;;;179.75;150.00;;;;;;;;5229743;28;9954;-71
2022/10/11 15:33:04;;;;;;;;;154.33;122.00;;;;;;;;5254369;28;10507;-71
2022/10/11 15:35:35;;;;;;;;;125.33;104.33;;;;;;;;5247137;28;8936;-72
2022/10/11 15:38:14;;;;;;;;;109.00;90.75;;;;;;;;5246414;28;8791;-72
2022/10/11 15:41:03;;;;;;;;;117.75;95.00;;;;;;;;5234531;28;11735;-73
2022/10/11 15:43:34;;;;;;;;;152.67;124.00;;;;;;;;5249442;28;8779;-73
2022/10/11 15:46:05;;;;;;;;;151.33;127.33;;;;;;;;5249273;28;9373;-72
2022/10/11 15:48:37;;;;;;;;;133.33;109.33;;;;;;;;5252372;28;8808;-70
2022/10/11 15:51:08;;;;;;;;;120.50;99.75;;;;;;;;5249061;28;9676;-70
2022/10/11 15:53:39;;;;;;;;;116.75;99.25;;;;;;;;5244677;28;8795;-71
2022/10/11 15:56:13;;;;;;;;;102.50;89.25;;;;;;;;5256611;28;8789;-70